Flight Information

DEPARTURE
SAN LUIS OBISPO, CA
Elevation:
212
Runways:
11/29 - 6101x150 - ASPH-G
7/25 - 2500x100 - ASPH-G
ATIS:
120.6
Ground:
121.6
Tower:
124
DESTINATION
,
Elevation:
TPA:
1000 (est.)


6875.8 NM71° True-14° Var56° HDG

Flight Plan:
(click to file on line)

1. Type
2. Aircraft Identification
3. Aircraft Type / Special Equipment
4. True Airspeed
kts
5. Departure Airport
(ICAO code)
6. Arriving Airport
(ICAO code)
7. Cruising Altitude
ft
8. Alternate Airport
(ICAO code)
9. Route of Flight
10. Remarks


00:00:00 Departure ATIS: Destination ATIS:

Clearance Limit:
Route:
Altitude: Expect in minutes
Frequency:
Transponder: (7500 Hijack / 7600 Lost Comms / 7700 Emergency)


KSBP 221532Z 14004KT 10SM SCT021 BKN031 OVC049 09/07 A2999 RMK AO2 T00940067
Time: 2021-01-22T15:32:00Z
1611330383
Winds: 140 @ 4 kts
Visibility: 10.0 sm
Clouds (AGL): SCT 2100
BKN 3100
OVC 4900
Temperature: 9.4 C
Dew Point: 6.7 C
Pressure: 29.991142 in Hgbr


Notes:

Data extracted from FAA Digital Chart Supplement. Effective: 0901Z Thursday, Dec 31, 2020 to 0901Z Thursday, Jan 28, 2021
Current ATIS data is provided courtisy of PilotEdge.